AFL1016 URWW-UWKD
Flight info
| Callsign | AFL1016 |
|---|---|
| Flight time | 1h 42m |
| Altitude | 37000 |
| Route | RODUN1E RODUN R807 UROBO P135 DAFOS T789 SONUM SONUM1R |
| Aircraft | A320/M-SDE3FGHIRWY/LB1 |
Departure
| Time | 2026-05-07 17:51 |
|---|---|
| Airport | Volgograd International Airport (URWW) |
Arrival
| Time | 2026-05-07 19:33 |
|---|---|
| Airport | Kazan International Airport (UWKD) |
| Time | Latitude | Longitude | Altitude | Speed | Heading |
|---|---|---|---|---|---|
| 2026-05-07 17:07 | 48.79007 | 44.35220 | 482 ft | 0 kts | 340° |
| 2026-05-07 17:36 | 48.78999 | 44.35225 | 482 ft | 4 kts | 336° |
| 2026-05-07 17:36 | 48.78977 | 44.35246 | 476 ft | 4 kts | 311° |
| 2026-05-07 17:36 | 48.78965 | 44.35279 | 477 ft | 4 kts | 270° |
| 2026-05-07 17:36 | 48.78966 | 44.35297 | 476 ft | 0 kts | 250° |
| 2026-05-07 17:40 | 48.78962 | 44.35282 | 482 ft | 4 kts | 250° |
| 2026-05-07 17:40 | 48.78946 | 44.35217 | 477 ft | 9 kts | 249° |
| 2026-05-07 17:41 | 48.78920 | 44.35130 | 475 ft | 8 kts | 233° |
| 2026-05-07 17:41 | 48.78861 | 44.35117 | 478 ft | 11 kts | 166° |
| 2026-05-07 17:41 | 48.78794 | 44.35150 | 477 ft | 10 kts | 162° |
| 2026-05-07 17:41 | 48.78762 | 44.35165 | 480 ft | 0 kts | 162° |
| 2026-05-07 17:45 | 48.78757 | 44.35168 | 480 ft | 0 kts | 161° |
| 2026-05-07 17:46 | 48.78747 | 44.35173 | 480 ft | 4 kts | 161° |
| 2026-05-07 17:46 | 48.78706 | 44.35194 | 482 ft | 9 kts | 161° |
| 2026-05-07 17:46 | 48.78692 | 44.35201 | 484 ft | 0 kts | 162° |
| 2026-05-07 17:48 | 48.78691 | 44.35201 | 484 ft | 2 kts | 162° |
| 2026-05-07 17:48 | 48.78666 | 44.35214 | 483 ft | 6 kts | 161° |
| 2026-05-07 17:48 | 48.78612 | 44.35241 | 482 ft | 11 kts | 162° |
| 2026-05-07 17:49 | 48.78544 | 44.35187 | 478 ft | 12 kts | 246° |
| 2026-05-07 17:49 | 48.78542 | 44.35181 | 479 ft | 0 kts | 244° |
| 2026-05-07 17:50 | 48.78533 | 44.35151 | 478 ft | 21 kts | 244° |
| 2026-05-07 17:50 | 48.78349 | 44.34572 | 468 ft | 97 kts | 244° |
| 2026-05-07 17:51 | 48.77968 | 44.33377 | 454 ft | 152 kts | 244° |
| 2026-05-07 17:51 | 48.77483 | 44.31882 | 1022 ft | 157 kts | 244° |
| 2026-05-07 17:51 | 48.76995 | 44.30403 | 1753 ft | 156 kts | 247° |
| 2026-05-07 17:51 | 48.76524 | 44.28921 | 2474 ft | 156 kts | 248° |
| 2026-05-07 17:52 | 48.76057 | 44.27441 | 3150 ft | 156 kts | 248° |
| 2026-05-07 17:52 | 48.75566 | 44.25877 | 3545 ft | 175 kts | 248° |
| 2026-05-07 17:52 | 48.75011 | 44.24104 | 3858 ft | 197 kts | 248° |
| 2026-05-07 17:52 | 48.74576 | 44.22065 | 4124 ft | 217 kts | 273° |
| 2026-05-07 17:53 | 48.75118 | 44.19863 | 4467 ft | 235 kts | 314° |
| 2026-05-07 17:53 | 48.76556 | 44.18636 | 4914 ft | 254 kts | 352° |
| 2026-05-07 17:53 | 48.78313 | 44.19041 | 5695 ft | 263 kts | 26° |
| 2026-05-07 17:53 | 48.79814 | 44.20659 | 6652 ft | 267 kts | 40° |
| 2026-05-07 17:54 | 48.81170 | 44.22596 | 7593 ft | 269 kts | 42° |
| 2026-05-07 17:54 | 48.82520 | 44.24577 | 8526 ft | 271 kts | 42° |
| 2026-05-07 17:54 | 48.83885 | 44.26582 | 9441 ft | 274 kts | 42° |
| 2026-05-07 17:54 | 48.85320 | 44.28507 | 10256 ft | 280 kts | 36° |
| 2026-05-07 17:55 | 48.86964 | 44.30315 | 10571 ft | 303 kts | 33° |
| 2026-05-07 17:55 | 48.88771 | 44.32117 | 11117 ft | 315 kts | 31° |
| 2026-05-07 17:55 | 48.90607 | 44.33901 | 11893 ft | 319 kts | 31° |
| 2026-05-07 17:55 | 48.92488 | 44.35739 | 12718 ft | 322 kts | 32° |
| 2026-05-07 17:56 | 48.94379 | 44.37619 | 13543 ft | 326 kts | 32° |
| 2026-05-07 17:56 | 48.96279 | 44.39543 | 14277 ft | 329 kts | 33° |
| 2026-05-07 17:56 | 48.98177 | 44.41458 | 14941 ft | 332 kts | 29° |
| 2026-05-07 17:56 | 49.00355 | 44.42654 | 15574 ft | 336 kts | 8° |
| 2026-05-07 17:57 | 49.02716 | 44.42674 | 16237 ft | 341 kts | 359° |
| 2026-05-07 17:57 | 49.04285 | 44.42801 | 16669 ft | 343 kts | 11° |
| 2026-05-07 17:57 | 49.07320 | 44.44360 | 16952 ft | 345 kts | 22° |
| 2026-05-07 17:57 | 49.09541 | 44.45740 | 16972 ft | 344 kts | 22° |
| 2026-05-07 17:58 | 49.11762 | 44.47125 | 16960 ft | 344 kts | 22° |
| 2026-05-07 17:58 | 49.13969 | 44.48508 | 17291 ft | 348 kts | 22° |
| 2026-05-07 17:58 | 49.16219 | 44.49919 | 18038 ft | 350 kts | 22° |
| 2026-05-07 17:58 | 49.18481 | 44.51342 | 18657 ft | 353 kts | 22° |
| 2026-05-07 17:59 | 49.20774 | 44.52785 | 19239 ft | 357 kts | 22° |
| 2026-05-07 17:59 | 49.23077 | 44.54237 | 19813 ft | 360 kts | 22° |
| 2026-05-07 17:59 | 49.25407 | 44.55706 | 20386 ft | 363 kts | 22° |
| 2026-05-07 17:59 | 49.27764 | 44.57194 | 20951 ft | 366 kts | 22° |
| 2026-05-07 18:00 | 49.30107 | 44.58673 | 21493 ft | 369 kts | 22° |
| 2026-05-07 18:00 | 49.32500 | 44.60186 | 22045 ft | 372 kts | 22° |
| 2026-05-07 18:00 | 49.34908 | 44.61708 | 22602 ft | 375 kts | 22° |
| 2026-05-07 18:00 | 49.37340 | 44.63245 | 23147 ft | 378 kts | 22° |
| 2026-05-07 18:01 | 49.39791 | 44.64796 | 23651 ft | 382 kts | 22° |
| 2026-05-07 18:01 | 49.42229 | 44.66346 | 24084 ft | 385 kts | 22° |
| 2026-05-07 18:01 | 49.44714 | 44.67929 | 24521 ft | 388 kts | 22° |
| 2026-05-07 18:01 | 49.47224 | 44.69528 | 24948 ft | 391 kts | 22° |
| 2026-05-07 18:02 | 49.52293 | 44.72762 | 25783 ft | 397 kts | 22° |
| 2026-05-07 18:02 | 49.54858 | 44.74401 | 26196 ft | 400 kts | 22° |
| 2026-05-07 18:02 | 49.57443 | 44.76055 | 26598 ft | 403 kts | 22° |
| 2026-05-07 18:03 | 49.60044 | 44.77718 | 26995 ft | 406 kts | 22° |
| 2026-05-07 18:03 | 49.62660 | 44.79388 | 27399 ft | 408 kts | 22° |
| 2026-05-07 18:03 | 49.65266 | 44.81055 | 27799 ft | 411 kts | 22° |
| 2026-05-07 18:03 | 49.67923 | 44.82761 | 28194 ft | 414 kts | 22° |
| 2026-05-07 18:04 | 49.70587 | 44.84476 | 28576 ft | 416 kts | 22° |
| 2026-05-07 18:04 | 49.73280 | 44.86211 | 28967 ft | 419 kts | 22° |
| 2026-05-07 18:04 | 49.75986 | 44.87958 | 29350 ft | 422 kts | 23° |
| 2026-05-07 18:04 | 49.78710 | 44.89718 | 29719 ft | 425 kts | 23° |
| 2026-05-07 18:05 | 49.81425 | 44.91472 | 30066 ft | 427 kts | 23° |
| 2026-05-07 18:05 | 49.84186 | 44.93254 | 30370 ft | 430 kts | 23° |
| 2026-05-07 18:05 | 49.86952 | 44.95041 | 30665 ft | 432 kts | 23° |
| 2026-05-07 18:05 | 49.89734 | 44.96841 | 30963 ft | 434 kts | 23° |
| 2026-05-07 18:06 | 49.92533 | 44.98655 | 31264 ft | 435 kts | 22° |
| 2026-05-07 18:06 | 49.95307 | 45.00455 | 31595 ft | 436 kts | 23° |
| 2026-05-07 18:06 | 49.98105 | 45.02276 | 32020 ft | 434 kts | 23° |
| 2026-05-07 18:06 | 50.00890 | 45.04091 | 32430 ft | 434 kts | 22° |
| 2026-05-07 18:07 | 50.03678 | 45.05911 | 32818 ft | 433 kts | 22° |
| 2026-05-07 18:07 | 50.06461 | 45.07732 | 32941 ft | 433 kts | 23° |
| 2026-05-07 18:07 | 50.09233 | 45.09551 | 32957 ft | 432 kts | 23° |
| 2026-05-07 18:08 | 50.14748 | 45.13169 | 32957 ft | 431 kts | 22° |
| 2026-05-07 18:08 | 50.20288 | 45.16794 | 32959 ft | 431 kts | 22° |
| 2026-05-07 18:09 | 50.25836 | 45.20444 | 32952 ft | 432 kts | 23° |
| 2026-05-07 18:09 | 50.31381 | 45.24116 | 32960 ft | 432 kts | 23° |
| 2026-05-07 18:10 | 50.36899 | 45.27769 | 32963 ft | 432 kts | 22° |
| 2026-05-07 18:10 | 50.42446 | 45.31444 | 32959 ft | 432 kts | 22° |
| 2026-05-07 18:11 | 50.47937 | 45.35084 | 32963 ft | 419 kts | 22° |
| 2026-05-07 18:11 | 50.53260 | 45.38634 | 32958 ft | 413 kts | 23° |
| 2026-05-07 18:12 | 50.58514 | 45.42153 | 32958 ft | 412 kts | 23° |
| 2026-05-07 18:12 | 50.63794 | 45.45692 | 32956 ft | 412 kts | 23° |
| 2026-05-07 18:13 | 50.69054 | 45.49218 | 32958 ft | 411 kts | 23° |
| 2026-05-07 18:13 | 50.74321 | 45.52767 | 32960 ft | 411 kts | 23° |
| 2026-05-07 18:14 | 50.79669 | 45.56013 | 32949 ft | 411 kts | 13° |
| 2026-05-07 18:14 | 50.85221 | 45.58002 | 32943 ft | 411 kts | 13° |
| 2026-05-07 18:15 | 50.90808 | 45.59996 | 32946 ft | 411 kts | 13° |
| 2026-05-07 18:15 | 50.96399 | 45.62010 | 32930 ft | 411 kts | 13° |
| 2026-05-07 18:16 | 51.01940 | 45.64037 | 32943 ft | 411 kts | 15° |
| 2026-05-07 18:16 | 51.07236 | 45.67494 | 32938 ft | 411 kts | 25° |
| 2026-05-07 18:17 | 51.12412 | 45.71380 | 32932 ft | 411 kts | 25° |
| 2026-05-07 18:17 | 51.17581 | 45.75253 | 32931 ft | 411 kts | 25° |
| 2026-05-07 18:18 | 51.22722 | 45.79114 | 32940 ft | 410 kts | 25° |
| 2026-05-07 18:18 | 51.27892 | 45.83016 | 32929 ft | 411 kts | 25° |
| 2026-05-07 18:19 | 51.33074 | 45.86938 | 32920 ft | 411 kts | 25° |
| 2026-05-07 18:19 | 51.38254 | 45.90858 | 32922 ft | 412 kts | 25° |
| 2026-05-07 18:20 | 51.43403 | 45.94764 | 32925 ft | 412 kts | 25° |
| 2026-05-07 18:20 | 51.48585 | 45.98713 | 32930 ft | 412 kts | 25° |
| 2026-05-07 18:21 | 51.53762 | 46.02673 | 32926 ft | 412 kts | 25° |
| 2026-05-07 18:21 | 51.58931 | 46.06686 | 32927 ft | 412 kts | 26° |
| 2026-05-07 18:22 | 51.64045 | 46.10906 | 32926 ft | 412 kts | 27° |
| 2026-05-07 18:22 | 51.69116 | 46.15156 | 32929 ft | 412 kts | 27° |
| 2026-05-07 18:23 | 51.74218 | 46.19394 | 32939 ft | 412 kts | 26° |
| 2026-05-07 18:23 | 51.79333 | 46.23626 | 32941 ft | 412 kts | 27° |
| 2026-05-07 18:24 | 51.84444 | 46.27871 | 32933 ft | 412 kts | 27° |
| 2026-05-07 18:24 | 51.89526 | 46.32096 | 32930 ft | 412 kts | 27° |
| 2026-05-07 18:25 | 51.93803 | 46.35663 | 32918 ft | 412 kts | 26° |
| 2026-05-07 18:25 | 51.98883 | 46.39912 | 32921 ft | 412 kts | 26° |
| 2026-05-07 18:26 | 52.03988 | 46.44196 | 32927 ft | 412 kts | 27° |
| 2026-05-07 18:26 | 52.09060 | 46.48462 | 32936 ft | 412 kts | 27° |
| 2026-05-07 18:27 | 52.10784 | 46.49912 | 32937 ft | 412 kts | 27° |
| 2026-05-07 18:28 | 52.12498 | 46.51171 | 32929 ft | 411 kts | 22° |
| 2026-05-07 18:29 | 52.17665 | 46.55228 | 32929 ft | 412 kts | 28° |
| 2026-05-07 18:29 | 52.22676 | 46.59797 | 32933 ft | 412 kts | 28° |
| 2026-05-07 18:30 | 52.27654 | 46.64242 | 32938 ft | 412 kts | 27° |
| 2026-05-07 18:30 | 52.32739 | 46.68586 | 32941 ft | 412 kts | 27° |
| 2026-05-07 18:31 | 52.37854 | 46.72906 | 32941 ft | 412 kts | 27° |
| 2026-05-07 18:31 | 52.42949 | 46.77231 | 32941 ft | 412 kts | 27° |
| 2026-05-07 18:32 | 52.48031 | 46.81610 | 32939 ft | 413 kts | 27° |
| 2026-05-07 18:32 | 52.53091 | 46.85981 | 32938 ft | 413 kts | 27° |
| 2026-05-07 18:33 | 52.58200 | 46.90387 | 32944 ft | 414 kts | 27° |
| 2026-05-07 18:33 | 52.63303 | 46.94792 | 32946 ft | 413 kts | 27° |
| 2026-05-07 18:34 | 52.67250 | 46.98208 | 32945 ft | 413 kts | 27° |
| 2026-05-07 18:34 | 52.72351 | 47.02644 | 32954 ft | 414 kts | 27° |
| 2026-05-07 18:35 | 52.77451 | 47.07089 | 32947 ft | 414 kts | 27° |
| 2026-05-07 18:35 | 52.82519 | 47.11513 | 32947 ft | 414 kts | 27° |
| 2026-05-07 18:36 | 52.87630 | 47.15977 | 32954 ft | 415 kts | 27° |
| 2026-05-07 18:36 | 52.92743 | 47.20466 | 32962 ft | 415 kts | 27° |
| 2026-05-07 18:37 | 52.97814 | 47.24945 | 32961 ft | 415 kts | 27° |
| 2026-05-07 18:37 | 53.02922 | 47.29459 | 32961 ft | 415 kts | 27° |
| 2026-05-07 18:38 | 53.07990 | 47.33940 | 32960 ft | 414 kts | 27° |
| 2026-05-07 18:38 | 53.12718 | 47.38135 | 32967 ft | 414 kts | 27° |
| 2026-05-07 18:39 | 53.17799 | 47.42669 | 32969 ft | 414 kts | 27° |
| 2026-05-07 18:39 | 53.22888 | 47.47216 | 32968 ft | 414 kts | 28° |
| 2026-05-07 18:40 | 53.27939 | 47.51736 | 32967 ft | 414 kts | 28° |
| 2026-05-07 18:40 | 53.33029 | 47.56297 | 32968 ft | 414 kts | 28° |
| 2026-05-07 18:41 | 53.38012 | 47.60786 | 32969 ft | 414 kts | 28° |
| 2026-05-07 18:41 | 53.43096 | 47.65380 | 32977 ft | 414 kts | 28° |
| 2026-05-07 18:42 | 53.48172 | 47.69875 | 32979 ft | 414 kts | 23° |
| 2026-05-07 18:42 | 53.53532 | 47.73424 | 32973 ft | 413 kts | 21° |
| 2026-05-07 18:43 | 53.58904 | 47.76970 | 32983 ft | 413 kts | 21° |
| 2026-05-07 18:43 | 53.64216 | 47.80505 | 32990 ft | 412 kts | 21° |
| 2026-05-07 18:44 | 53.69554 | 47.84043 | 32992 ft | 411 kts | 19° |
| 2026-05-07 18:44 | 53.71369 | 47.84956 | 32992 ft | 410 kts | 13° |
| 2026-05-07 18:45 | 53.74032 | 47.85761 | 33002 ft | 409 kts | 7° |
| 2026-05-07 18:45 | 53.79622 | 47.87678 | 32985 ft | 409 kts | 15° |
| 2026-05-07 18:46 | 53.84929 | 47.91107 | 32975 ft | 409 kts | 27° |
| 2026-05-07 18:46 | 53.90059 | 47.95298 | 32970 ft | 409 kts | 24° |
| 2026-05-07 18:47 | 53.94801 | 47.98750 | 32967 ft | 410 kts | 23° |
| 2026-05-07 18:47 | 54.00052 | 48.02568 | 32977 ft | 410 kts | 23° |
| 2026-05-07 18:48 | 54.05273 | 48.06487 | 32970 ft | 410 kts | 24° |
| 2026-05-07 18:48 | 54.10453 | 48.10439 | 32973 ft | 410 kts | 24° |
| 2026-05-07 18:49 | 54.15663 | 48.14416 | 32966 ft | 410 kts | 24° |
| 2026-05-07 18:49 | 54.20875 | 48.18396 | 32966 ft | 409 kts | 24° |
| 2026-05-07 18:50 | 54.26045 | 48.22365 | 32970 ft | 409 kts | 26° |
| 2026-05-07 18:50 | 54.31032 | 48.27058 | 32971 ft | 400 kts | 28° |
| 2026-05-07 18:50 | 54.33422 | 48.29349 | 32967 ft | 384 kts | 29° |
| 2026-05-07 18:51 | 54.35700 | 48.31540 | 32975 ft | 374 kts | 29° |
| 2026-05-07 18:51 | 54.40200 | 48.35872 | 32973 ft | 368 kts | 28° |
| 2026-05-07 18:52 | 54.44647 | 48.40158 | 32742 ft | 371 kts | 29° |
| 2026-05-07 18:52 | 54.46914 | 48.42346 | 31881 ft | 373 kts | 29° |
| 2026-05-07 18:52 | 54.49171 | 48.44529 | 31113 ft | 369 kts | 29° |
| 2026-05-07 18:52 | 54.51408 | 48.46695 | 30416 ft | 366 kts | 28° |
| 2026-05-07 18:53 | 54.53612 | 48.48832 | 29682 ft | 362 kts | 29° |
| 2026-05-07 18:53 | 54.55800 | 48.50957 | 28885 ft | 359 kts | 28° |
| 2026-05-07 18:53 | 54.57951 | 48.53043 | 28105 ft | 356 kts | 28° |
| 2026-05-07 18:53 | 54.60103 | 48.55127 | 27368 ft | 353 kts | 28° |
| 2026-05-07 18:54 | 54.62239 | 48.57203 | 26653 ft | 350 kts | 28° |
| 2026-05-07 18:54 | 54.64351 | 48.59264 | 25980 ft | 347 kts | 29° |
| 2026-05-07 18:54 | 54.66455 | 48.61323 | 25526 ft | 347 kts | 29° |
| 2026-05-07 18:54 | 54.68557 | 48.63378 | 25100 ft | 346 kts | 29° |
| 2026-05-07 18:55 | 54.70653 | 48.65423 | 24680 ft | 347 kts | 29° |
| 2026-05-07 18:55 | 54.72763 | 48.67486 | 24229 ft | 347 kts | 29° |
| 2026-05-07 18:55 | 54.74866 | 48.69547 | 23793 ft | 347 kts | 29° |
| 2026-05-07 18:55 | 54.76942 | 48.71585 | 23371 ft | 347 kts | 29° |
| 2026-05-07 18:56 | 54.79021 | 48.73629 | 22988 ft | 345 kts | 29° |
| 2026-05-07 18:56 | 54.81139 | 48.75715 | 22346 ft | 349 kts | 28° |
| 2026-05-07 18:56 | 54.83189 | 48.77736 | 22155 ft | 329 kts | 28° |
| 2026-05-07 18:56 | 54.85154 | 48.79677 | 21955 ft | 322 kts | 28° |
| 2026-05-07 18:57 | 54.87095 | 48.81595 | 21963 ft | 320 kts | 28° |
| 2026-05-07 18:57 | 54.89004 | 48.83485 | 21968 ft | 319 kts | 28° |
| 2026-05-07 18:57 | 54.90936 | 48.85401 | 21793 ft | 322 kts | 28° |
| 2026-05-07 18:57 | 54.92915 | 48.87363 | 21172 ft | 325 kts | 28° |
| 2026-05-07 18:58 | 54.94846 | 48.89282 | 20770 ft | 315 kts | 28° |
| 2026-05-07 18:58 | 54.96729 | 48.91159 | 20238 ft | 310 kts | 28° |
| 2026-05-07 18:58 | 54.98599 | 48.93021 | 19749 ft | 309 kts | 28° |
| 2026-05-07 18:58 | 55.00436 | 48.94850 | 19305 ft | 305 kts | 28° |
| 2026-05-07 18:59 | 55.02273 | 48.96682 | 19017 ft | 303 kts | 28° |
| 2026-05-07 18:59 | 55.04113 | 48.98518 | 18958 ft | 305 kts | 28° |
| 2026-05-07 18:59 | 55.05964 | 49.00368 | 18968 ft | 305 kts | 28° |
| 2026-05-07 18:59 | 55.07788 | 49.02198 | 18969 ft | 306 kts | 28° |
| 2026-05-07 19:00 | 55.09635 | 49.04059 | 18970 ft | 306 kts | 28° |
| 2026-05-07 19:00 | 55.11474 | 49.05913 | 18969 ft | 301 kts | 28° |
| 2026-05-07 19:00 | 55.13254 | 49.07712 | 18970 ft | 288 kts | 28° |
| 2026-05-07 19:00 | 55.14966 | 49.09313 | 18969 ft | 275 kts | 17° |
| 2026-05-07 19:01 | 55.16820 | 49.09710 | 18973 ft | 267 kts | 349° |
| 2026-05-07 19:01 | 55.18535 | 49.08579 | 18970 ft | 264 kts | 327° |
| 2026-05-07 19:01 | 55.20079 | 49.06801 | 18968 ft | 265 kts | 324° |
| 2026-05-07 19:01 | 55.21587 | 49.04949 | 18966 ft | 265 kts | 324° |
| 2026-05-07 19:02 | 55.23093 | 49.03081 | 18967 ft | 265 kts | 324° |
| 2026-05-07 19:02 | 55.24580 | 49.01234 | 18966 ft | 265 kts | 324° |
| 2026-05-07 19:02 | 55.26089 | 48.99358 | 18967 ft | 265 kts | 324° |
| 2026-05-07 19:02 | 55.27595 | 48.97484 | 18968 ft | 265 kts | 324° |
| 2026-05-07 19:03 | 55.29109 | 48.95598 | 18969 ft | 271 kts | 324° |
| 2026-05-07 19:03 | 55.30691 | 48.93628 | 18964 ft | 281 kts | 324° |
| 2026-05-07 19:03 | 55.32282 | 48.91644 | 18648 ft | 280 kts | 324° |
| 2026-05-07 19:03 | 55.33849 | 48.89691 | 18141 ft | 278 kts | 324° |
| 2026-05-07 19:04 | 55.35434 | 48.87714 | 17484 ft | 283 kts | 324° |
| 2026-05-07 19:04 | 55.37045 | 48.85699 | 16767 ft | 286 kts | 324° |
| 2026-05-07 19:04 | 55.38675 | 48.83665 | 16150 ft | 286 kts | 324° |
| 2026-05-07 19:04 | 55.40301 | 48.81644 | 15618 ft | 284 kts | 324° |
| 2026-05-07 19:05 | 55.41895 | 48.79658 | 15293 ft | 274 kts | 324° |
| 2026-05-07 19:05 | 55.43407 | 48.77771 | 14960 ft | 266 kts | 324° |
| 2026-05-07 19:05 | 55.44910 | 48.75889 | 14526 ft | 263 kts | 324° |
| 2026-05-07 19:05 | 55.46397 | 48.74023 | 14076 ft | 262 kts | 324° |
| 2026-05-07 19:06 | 55.47883 | 48.72151 | 13533 ft | 263 kts | 324° |
| 2026-05-07 19:06 | 55.50846 | 48.68385 | 12388 ft | 263 kts | 324° |
| 2026-05-07 19:06 | 55.52330 | 48.66476 | 11826 ft | 263 kts | 324° |
| 2026-05-07 19:07 | 55.53803 | 48.64567 | 11258 ft | 262 kts | 324° |
| 2026-05-07 19:07 | 55.55268 | 48.62653 | 10724 ft | 261 kts | 324° |
| 2026-05-07 19:07 | 55.56229 | 48.61388 | 10380 ft | 259 kts | 323° |
| 2026-05-07 19:07 | 55.57645 | 48.59527 | 10062 ft | 249 kts | 324° |
| 2026-05-07 19:08 | 55.59025 | 48.57711 | 9966 ft | 246 kts | 324° |
| 2026-05-07 19:08 | 55.60405 | 48.55894 | 9973 ft | 249 kts | 323° |
| 2026-05-07 19:08 | 55.62240 | 48.53523 | 9712 ft | 244 kts | 324° |
| 2026-05-07 19:08 | 55.63167 | 48.52331 | 9493 ft | 243 kts | 324° |
| 2026-05-07 19:09 | 55.64537 | 48.50654 | 9168 ft | 242 kts | 333° |
| 2026-05-07 19:09 | 55.66157 | 48.49990 | 8839 ft | 241 kts | 359° |
| 2026-05-07 19:09 | 55.67836 | 48.50156 | 8466 ft | 242 kts | 4° |
| 2026-05-07 19:09 | 55.69520 | 48.50440 | 8104 ft | 243 kts | 4° |
| 2026-05-07 19:10 | 55.71215 | 48.50741 | 7681 ft | 246 kts | 4° |
| 2026-05-07 19:10 | 55.72906 | 48.51046 | 7345 ft | 241 kts | 4° |
| 2026-05-07 19:10 | 55.74566 | 48.51348 | 6875 ft | 239 kts | 4° |
| 2026-05-07 19:10 | 55.76217 | 48.51651 | 6387 ft | 238 kts | 4° |
| 2026-05-07 19:11 | 55.77853 | 48.51951 | 6000 ft | 238 kts | 4° |
| 2026-05-07 19:11 | 55.79496 | 48.52248 | 5967 ft | 238 kts | 4° |
| 2026-05-07 19:11 | 55.81155 | 48.52548 | 5969 ft | 239 kts | 4° |
| 2026-05-07 19:11 | 55.82811 | 48.52848 | 5970 ft | 239 kts | 4° |
| 2026-05-07 19:12 | 55.84467 | 48.53149 | 5972 ft | 239 kts | 4° |
| 2026-05-07 19:12 | 55.86128 | 48.53450 | 5974 ft | 239 kts | 4° |
| 2026-05-07 19:12 | 55.87782 | 48.53791 | 5970 ft | 239 kts | 10° |
| 2026-05-07 19:12 | 55.89281 | 48.54987 | 5968 ft | 242 kts | 37° |
| 2026-05-07 19:13 | 55.90333 | 48.57337 | 5971 ft | 246 kts | 65° |
| 2026-05-07 19:13 | 55.90634 | 48.60324 | 5972 ft | 249 kts | 95° |
| 2026-05-07 19:13 | 55.90095 | 48.63232 | 5972 ft | 250 kts | 123° |
| 2026-05-07 19:13 | 55.88973 | 48.65604 | 5979 ft | 250 kts | 132° |
| 2026-05-07 19:14 | 55.87817 | 48.67877 | 5970 ft | 250 kts | 133° |
| 2026-05-07 19:14 | 55.86631 | 48.70201 | 5970 ft | 250 kts | 133° |
| 2026-05-07 19:14 | 55.85474 | 48.72473 | 5970 ft | 250 kts | 132° |
| 2026-05-07 19:14 | 55.84302 | 48.74779 | 5969 ft | 251 kts | 132° |
| 2026-05-07 19:15 | 55.83129 | 48.77087 | 5972 ft | 250 kts | 132° |
| 2026-05-07 19:15 | 55.81960 | 48.79390 | 5974 ft | 250 kts | 132° |
| 2026-05-07 19:15 | 55.80791 | 48.81692 | 5975 ft | 250 kts | 132° |
| 2026-05-07 19:15 | 55.79650 | 48.83937 | 5971 ft | 238 kts | 132° |
| 2026-05-07 19:16 | 55.78556 | 48.86086 | 5828 ft | 231 kts | 132° |
| 2026-05-07 19:16 | 55.77501 | 48.88156 | 5509 ft | 226 kts | 133° |
| 2026-05-07 19:16 | 55.76449 | 48.90219 | 5129 ft | 224 kts | 133° |
| 2026-05-07 19:16 | 55.75401 | 48.92269 | 4750 ft | 222 kts | 133° |
| 2026-05-07 19:17 | 55.74366 | 48.94291 | 4367 ft | 220 kts | 132° |
| 2026-05-07 19:17 | 55.73343 | 48.96291 | 3999 ft | 217 kts | 132° |
| 2026-05-07 19:17 | 55.72331 | 48.98265 | 3632 ft | 214 kts | 134° |
| 2026-05-07 19:17 | 55.71372 | 49.00185 | 3496 ft | 200 kts | 128° |
| 2026-05-07 19:18 | 55.70586 | 49.02068 | 3389 ft | 184 kts | 126° |
| 2026-05-07 19:18 | 55.69886 | 49.03857 | 3277 ft | 170 kts | 125° |
| 2026-05-07 19:18 | 55.69236 | 49.05542 | 3150 ft | 161 kts | 125° |
| 2026-05-07 19:18 | 55.68622 | 49.07138 | 3028 ft | 151 kts | 125° |
| 2026-05-07 19:19 | 55.68055 | 49.08614 | 2844 ft | 140 kts | 125° |
| 2026-05-07 19:19 | 55.67509 | 49.10033 | 2759 ft | 140 kts | 125° |
| 2026-05-07 19:19 | 55.66962 | 49.11456 | 2737 ft | 140 kts | 125° |
| 2026-05-07 19:19 | 55.66413 | 49.12881 | 2738 ft | 140 kts | 125° |
| 2026-05-07 19:20 | 55.65865 | 49.14306 | 2740 ft | 139 kts | 125° |
| 2026-05-07 19:20 | 55.65333 | 49.15686 | 2503 ft | 137 kts | 126° |
| 2026-05-07 19:20 | 55.64795 | 49.17081 | 2167 ft | 137 kts | 125° |
| 2026-05-07 19:20 | 55.64263 | 49.18460 | 1871 ft | 135 kts | 125° |
| 2026-05-07 19:21 | 55.63711 | 49.19890 | 1408 ft | 142 kts | 125° |
| 2026-05-07 19:21 | 55.63177 | 49.21274 | 1417 ft | 135 kts | 125° |
| 2026-05-07 19:21 | 55.62648 | 49.22643 | 1421 ft | 134 kts | 125° |
| 2026-05-07 19:21 | 55.62122 | 49.24004 | 1428 ft | 134 kts | 125° |
| 2026-05-07 19:22 | 55.61595 | 49.25368 | 1414 ft | 134 kts | 124° |
| 2026-05-07 19:22 | 55.61073 | 49.26717 | 1510 ft | 137 kts | 124° |
| 2026-05-07 19:22 | 55.60523 | 49.28139 | 2049 ft | 141 kts | 125° |
| 2026-05-07 19:22 | 55.59966 | 49.29575 | 2683 ft | 143 kts | 125° |
| 2026-05-07 19:23 | 55.59385 | 49.31074 | 3002 ft | 153 kts | 125° |
| 2026-05-07 19:23 | 55.58794 | 49.32598 | 3166 ft | 149 kts | 125° |
| 2026-05-07 19:23 | 55.58200 | 49.34098 | 3300 ft | 146 kts | 131° |
| 2026-05-07 19:23 | 55.57318 | 49.34889 | 3055 ft | 148 kts | 177° |
| 2026-05-07 19:24 | 55.56329 | 49.34254 | 2639 ft | 165 kts | 225° |
| 2026-05-07 19:24 | 55.55929 | 49.32392 | 2494 ft | 166 kts | 276° |
| 2026-05-07 19:24 | 55.56082 | 49.30356 | 2876 ft | 175 kts | 275° |
| 2026-05-07 19:24 | 55.56199 | 49.28170 | 3495 ft | 180 kts | 275° |
| 2026-05-07 19:25 | 55.56313 | 49.25865 | 3905 ft | 199 kts | 275° |
| 2026-05-07 19:25 | 55.56441 | 49.23277 | 4021 ft | 224 kts | 276° |
| 2026-05-07 19:25 | 55.56590 | 49.20461 | 4019 ft | 233 kts | 277° |
| 2026-05-07 19:25 | 55.57098 | 49.17754 | 4034 ft | 234 kts | 300° |
| 2026-05-07 19:26 | 55.57957 | 49.15309 | 4036 ft | 234 kts | 304° |
| 2026-05-07 19:26 | 55.58864 | 49.12896 | 3734 ft | 237 kts | 304° |
| 2026-05-07 19:26 | 55.59779 | 49.10508 | 3276 ft | 235 kts | 304° |
| 2026-05-07 19:26 | 55.60701 | 49.08138 | 3038 ft | 234 kts | 304° |
| 2026-05-07 19:27 | 55.61630 | 49.05762 | 3033 ft | 235 kts | 304° |
| 2026-05-07 19:27 | 55.62561 | 49.03386 | 3031 ft | 235 kts | 304° |
| 2026-05-07 19:27 | 55.63494 | 49.01000 | 3029 ft | 235 kts | 304° |
| 2026-05-07 19:27 | 55.64427 | 48.98616 | 3027 ft | 235 kts | 304° |
| 2026-05-07 19:28 | 55.65500 | 48.96442 | 3020 ft | 236 kts | 323° |
| 2026-05-07 19:28 | 55.66987 | 48.95268 | 2937 ft | 237 kts | 351° |
| 2026-05-07 19:28 | 55.68596 | 48.95474 | 2773 ft | 229 kts | 20° |
| 2026-05-07 19:28 | 55.69901 | 48.96922 | 2689 ft | 218 kts | 50° |
| 2026-05-07 19:29 | 55.70582 | 48.99248 | 2697 ft | 212 kts | 80° |
| 2026-05-07 19:29 | 55.70531 | 49.01772 | 2698 ft | 208 kts | 109° |
| 2026-05-07 19:29 | 55.69850 | 49.03959 | 2699 ft | 198 kts | 125° |
| 2026-05-07 19:29 | 55.69079 | 49.05951 | 2693 ft | 193 kts | 125° |
| 2026-05-07 19:30 | 55.68328 | 49.07902 | 2582 ft | 189 kts | 125° |
| 2026-05-07 19:30 | 55.67589 | 49.09825 | 2382 ft | 189 kts | 126° |
| 2026-05-07 19:30 | 55.66844 | 49.11760 | 2157 ft | 188 kts | 125° |
| 2026-05-07 19:30 | 55.66137 | 49.13598 | 1923 ft | 172 kts | 125° |
| 2026-05-07 19:31 | 55.65496 | 49.15264 | 1708 ft | 154 kts | 125° |
| 2026-05-07 19:31 | 55.64921 | 49.16757 | 1482 ft | 141 kts | 125° |
| 2026-05-07 19:31 | 55.64387 | 49.18142 | 1312 ft | 136 kts | 125° |
| 2026-05-07 19:31 | 55.63853 | 49.19524 | 1144 ft | 136 kts | 124° |
| 2026-05-07 19:32 | 55.63320 | 49.20906 | 959 ft | 136 kts | 124° |
| 2026-05-07 19:32 | 55.62785 | 49.22292 | 779 ft | 136 kts | 124° |
| 2026-05-07 19:32 | 55.62249 | 49.23689 | 617 ft | 137 kts | 123° |
| 2026-05-07 19:32 | 55.61710 | 49.25065 | 484 ft | 137 kts | 124° |
| 2026-05-07 19:33 | 55.61175 | 49.26442 | 418 ft | 129 kts | 123° |
| 2026-05-07 19:33 | 55.60743 | 49.27580 | 413 ft | 86 kts | 124° |
| 2026-05-07 19:33 | 55.60474 | 49.28283 | 412 ft | 34 kts | 123° |
| 2026-05-07 19:33 | 55.60393 | 49.28512 | 413 ft | 16 kts | 108° |
| 2026-05-07 19:34 | 55.60442 | 49.28637 | 417 ft | 12 kts | 36° |
| 2026-05-07 19:34 | 55.60464 | 49.28664 | 414 ft | 0 kts | 33° |
| 2026-05-07 19:35 | 55.60471 | 49.28673 | 412 ft | 5 kts | 34° |
| 2026-05-07 19:35 | 55.60520 | 49.28732 | 416 ft | 11 kts | 34° |
| 2026-05-07 19:35 | 55.60583 | 49.28847 | 409 ft | 15 kts | 80° |
| 2026-05-07 19:36 | 55.60579 | 49.28960 | 416 ft | 7 kts | 94° |
| 2026-05-07 19:36 | 55.60577 | 49.29076 | 416 ft | 12 kts | 83° |
| 2026-05-07 19:36 | 55.60632 | 49.29206 | 410 ft | 15 kts | 36° |
| 2026-05-07 19:36 | 55.60691 | 49.29277 | 416 ft | 7 kts | 34° |
| 2026-05-07 19:37 | 55.60746 | 49.29344 | 414 ft | 12 kts | 34° |
| 2026-05-07 19:37 | 55.60791 | 49.29399 | 411 ft | 0 kts | 34° |
| 2026-05-07 19:37 | 55.60792 | 49.29400 | 411 ft | 0 kts | 34° |
| 2026-05-07 19:37 | 55.60803 | 49.29415 | 414 ft | 5 kts | 41° |
| 2026-05-07 19:38 | 55.60805 | 49.29493 | 416 ft | 10 kts | 125° |
| 2026-05-07 19:38 | 55.60757 | 49.29625 | 410 ft | 16 kts | 125° |
| 2026-05-07 19:38 | 55.60704 | 49.29761 | 413 ft | 11 kts | 124° |
| 2026-05-07 19:38 | 55.60672 | 49.29859 | 411 ft | 2 kts | 104° |
| 2026-05-07 19:39 | 55.60678 | 49.29907 | 409 ft | 6 kts | 58° |
| 2026-05-07 19:39 | 55.60704 | 49.29947 | 406 ft | 1 kts | 36° |
| 2026-05-07 19:39 | 55.60712 | 49.29957 | 407 ft | 0 kts | 36° |
| 2026-05-07 19:39 | 55.60713 | 49.29957 | 407 ft | 0 kts | 35° |
| 2026-05-07 19:40 | 55.60717 | 49.29962 | 407 ft | 1 kts | 35° |
| 2026-05-07 19:40 | 55.60717 | 49.29963 | 407 ft | 0 kts | 34° |